sensor_id;sensor_type;location;lat;lon;timestamp;P1;durP1;ratioP1;P2;durP2;ratioP2
52386;SDS011;38317;53.084;6.960;2022-07-30T00:00:14;4.93;;;2.85;;
52386;SDS011;38317;53.084;6.960;2022-07-30T00:02:41;7.28;;;3.15;;
52386;SDS011;38317;53.084;6.960;2022-07-30T00:05:07;5.88;;;2.88;;
52386;SDS011;38317;53.084;6.960;2022-07-30T00:07:33;5.97;;;3.20;;
52386;SDS011;38317;53.084;6.960;2022-07-30T00:10:00;5.28;;;3.25;;
52386;SDS011;38317;53.084;6.960;2022-07-30T00:12:26;5.97;;;2.97;;
52386;SDS011;38317;53.084;6.960;2022-07-30T00:14:52;8.68;;;3.50;;
52386;SDS011;38317;53.084;6.960;2022-07-30T00:17:18;5.32;;;2.80;;
52386;SDS011;38317;53.084;6.960;2022-07-30T00:19:43;5.50;;;3.03;;
52386;SDS011;38317;53.084;6.960;2022-07-30T00:22:09;5.88;;;3.28;;
52386;SDS011;38317;53.084;6.960;2022-07-30T00:24:35;6.28;;;3.10;;
52386;SDS011;38317;53.084;6.960;2022-07-30T00:27:00;6.65;;;3.15;;
52386;SDS011;38317;53.084;6.960;2022-07-30T00:29:26;6.20;;;3.50;;
52386;SDS011;38317;53.084;6.960;2022-07-30T00:31:52;5.32;;;3.15;;
52386;SDS011;38317;53.084;6.960;2022-07-30T00:34:18;5.05;;;3.35;;
52386;SDS011;38317;53.084;6.960;2022-07-30T00:36:43;4.93;;;3.05;;
52386;SDS011;38317;53.084;6.960;2022-07-30T00:39:09;6.60;;;3.45;;
52386;SDS011;38317;53.084;6.960;2022-07-30T00:41:51;5.40;;;3.22;;
52386;SDS011;38317;53.084;6.960;2022-07-30T00:46:43;5.32;;;3.20;;
52386;SDS011;38317;53.084;6.960;2022-07-30T00:49:09;6.05;;;3.35;;
52386;SDS011;38317;53.084;6.960;2022-07-30T00:51:35;6.82;;;3.33;;
52386;SDS011;38317;53.084;6.960;2022-07-30T00:54:01;5.53;;;3.20;;
52386;SDS011;38317;53.084;6.960;2022-07-30T00:56:27;7.45;;;3.47;;
52386;SDS011;38317;53.084;6.960;2022-07-30T00:58:52;5.50;;;3.38;;
52386;SDS011;38317;53.084;6.960;2022-07-30T01:01:18;6.25;;;3.45;;
52386;SDS011;38317;53.084;6.960;2022-07-30T01:03:45;7.40;;;3.60;;
52386;SDS011;38317;53.084;6.960;2022-07-30T01:06:10;5.43;;;3.28;;
52386;SDS011;38317;53.084;6.960;2022-07-30T01:08:36;5.03;;;3.25;;
52386;SDS011;38317;53.084;6.960;2022-07-30T01:11:02;5.25;;;3.30;;
52386;SDS011;38317;53.084;6.960;2022-07-30T01:13:28;4.80;;;3.28;;
52386;SDS011;38317;53.084;6.960;2022-07-30T01:15:53;6.25;;;3.42;;
52386;SDS011;38317;53.084;6.960;2022-07-30T01:18:22;5.05;;;3.25;;
52386;SDS011;38317;53.084;6.960;2022-07-30T01:21:10;5.57;;;3.60;;
52386;SDS011;38317;53.084;6.960;2022-07-30T01:23:41;6.63;;;3.38;;
52386;SDS011;38317;53.084;6.960;2022-07-30T01:26:11;7.40;;;3.15;;
52386;SDS011;38317;53.084;6.960;2022-07-30T01:28:42;5.07;;;3.10;;
52386;SDS011;38317;53.084;6.960;2022-07-30T01:31:12;6.22;;;3.60;;
52386;SDS011;38317;53.084;6.960;2022-07-30T01:33:41;5.07;;;3.13;;
52386;SDS011;38317;53.084;6.960;2022-07-30T01:36:10;4.93;;;3.13;;
52386;SDS011;38317;53.084;6.960;2022-07-30T01:38:39;4.85;;;2.92;;
52386;SDS011;38317;53.084;6.960;2022-07-30T01:41:07;5.55;;;3.08;;
52386;SDS011;38317;53.084;6.960;2022-07-30T01:43:35;4.20;;;2.88;;
52386;SDS011;38317;53.084;6.960;2022-07-30T01:46:02;5.45;;;3.05;;
52386;SDS011;38317;53.084;6.960;2022-07-30T01:48:29;5.03;;;2.88;;
52386;SDS011;38317;53.084;6.960;2022-07-30T01:51:00;5.85;;;3.35;;
52386;SDS011;38317;53.084;6.960;2022-07-30T01:53:29;5.90;;;3.10;;
52386;SDS011;38317;53.084;6.960;2022-07-30T01:55:56;5.60;;;3.05;;
52386;SDS011;38317;53.084;6.960;2022-07-30T01:58:27;4.78;;;3.13;;
52386;SDS011;38317;53.084;6.960;2022-07-30T02:00:55;5.57;;;3.63;;
52386;SDS011;38317;53.084;6.960;2022-07-30T02:03:23;4.88;;;3.35;;
52386;SDS011;38317;53.084;6.960;2022-07-30T02:05:51;5.80;;;3.25;;
52386;SDS011;38317;53.084;6.960;2022-07-30T02:08:25;5.53;;;3.28;;
52386;SDS011;38317;53.084;6.960;2022-07-30T02:10:54;5.43;;;3.20;;
52386;SDS011;38317;53.084;6.960;2022-07-30T02:13:26;4.70;;;3.10;;
52386;SDS011;38317;53.084;6.960;2022-07-30T02:15:58;6.10;;;3.40;;
52386;SDS011;38317;53.084;6.960;2022-07-30T02:18:30;4.78;;;3.28;;
52386;SDS011;38317;53.084;6.960;2022-07-30T02:23:32;6.18;;;3.55;;
52386;SDS011;38317;53.084;6.960;2022-07-30T02:26:00;5.80;;;3.38;;
52386;SDS011;38317;53.084;6.960;2022-07-30T02:28:29;5.65;;;3.30;;
52386;SDS011;38317;53.084;6.960;2022-07-30T02:30:59;5.13;;;3.17;;
52386;SDS011;38317;53.084;6.960;2022-07-30T02:33:27;5.85;;;3.35;;
52386;SDS011;38317;53.084;6.960;2022-07-30T02:35:57;6.55;;;3.08;;
52386;SDS011;38317;53.084;6.960;2022-07-30T02:38:24;4.95;;;3.20;;
52386;SDS011;38317;53.084;6.960;2022-07-30T02:40:56;5.05;;;3.50;;
52386;SDS011;38317;53.084;6.960;2022-07-30T02:43:24;6.22;;;3.80;;
52386;SDS011;38317;53.084;6.960;2022-07-30T02:45:51;5.65;;;3.15;;
52386;SDS011;38317;53.084;6.960;2022-07-30T02:48:19;5.97;;;3.38;;
52386;SDS011;38317;53.084;6.960;2022-07-30T02:50:50;4.85;;;3.03;;
52386;SDS011;38317;53.084;6.960;2022-07-30T02:53:17;6.55;;;3.30;;
52386;SDS011;38317;53.084;6.960;2022-07-30T02:55:45;4.50;;;3.10;;
52386;SDS011;38317;53.084;6.960;2022-07-30T02:58:14;4.30;;;3.20;;
52386;SDS011;38317;53.084;6.960;2022-07-30T03:00:42;6.43;;;3.30;;
52386;SDS011;38317;53.084;6.960;2022-07-30T03:03:09;4.32;;;2.95;;
52386;SDS011;38317;53.084;6.960;2022-07-30T03:05:37;5.55;;;2.97;;
52386;SDS011;38317;53.084;6.960;2022-07-30T03:08:05;4.32;;;2.83;;
52386;SDS011;38317;53.084;6.960;2022-07-30T03:10:32;4.60;;;2.92;;
52386;SDS011;38317;53.084;6.960;2022-07-30T03:13:00;4.80;;;3.30;;
52386;SDS011;38317;53.084;6.960;2022-07-30T03:15:28;5.32;;;3.25;;
52386;SDS011;38317;53.084;6.960;2022-07-30T03:17:57;5.65;;;3.40;;
52386;SDS011;38317;53.084;6.960;2022-07-30T03:20:25;5.18;;;3.50;;
52386;SDS011;38317;53.084;6.960;2022-07-30T03:22:54;5.82;;;3.88;;
52386;SDS011;38317;53.084;6.960;2022-07-30T03:25:23;6.40;;;3.55;;
52386;SDS011;38317;53.084;6.960;2022-07-30T03:27:51;5.68;;;3.28;;
52386;SDS011;38317;53.084;6.960;2022-07-30T03:30:19;6.45;;;3.58;;
52386;SDS011;38317;53.084;6.960;2022-07-30T03:32:47;5.70;;;3.60;;
52386;SDS011;38317;53.084;6.960;2022-07-30T03:35:14;5.13;;;3.20;;
52386;SDS011;38317;53.084;6.960;2022-07-30T03:37:41;5.75;;;3.20;;
52386;SDS011;38317;53.084;6.960;2022-07-30T03:40:08;5.57;;;3.13;;
52386;SDS011;38317;53.084;6.960;2022-07-30T03:42:34;4.43;;;3.20;;
52386;SDS011;38317;53.084;6.960;2022-07-30T03:45:02;4.78;;;3.25;;
52386;SDS011;38317;53.084;6.960;2022-07-30T03:47:30;5.65;;;3.67;;
52386;SDS011;38317;53.084;6.960;2022-07-30T03:49:57;5.30;;;3.45;;
52386;SDS011;38317;53.084;6.960;2022-07-30T03:52:24;4.95;;;3.17;;
52386;SDS011;38317;53.084;6.960;2022-07-30T03:54:51;6.03;;;3.80;;
52386;SDS011;38317;53.084;6.960;2022-07-30T03:57:18;4.82;;;3.33;;
52386;SDS011;38317;53.084;6.960;2022-07-30T03:59:44;5.50;;;3.33;;
52386;SDS011;38317;53.084;6.960;2022-07-30T04:02:11;5.05;;;3.35;;
52386;SDS011;38317;53.084;6.960;2022-07-30T04:04:41;4.93;;;3.20;;
52386;SDS011;38317;53.084;6.960;2022-07-30T04:07:07;6.07;;;2.97;;
52386;SDS011;38317;53.084;6.960;2022-07-30T04:09:33;5.70;;;3.78;;
52386;SDS011;38317;53.084;6.960;2022-07-30T04:11:59;5.68;;;3.53;;
52386;SDS011;38317;53.084;6.960;2022-07-30T04:14:25;6.15;;;3.92;;
52386;SDS011;38317;53.084;6.960;2022-07-30T04:17:03;5.47;;;3.67;;
52386;SDS011;38317;53.084;6.960;2022-07-30T04:19:42;6.00;;;4.00;;
52386;SDS011;38317;53.084;6.960;2022-07-30T04:22:14;7.63;;;5.18;;
52386;SDS011;38317;53.084;6.960;2022-07-30T04:24:44;7.70;;;4.85;;
52386;SDS011;38317;53.084;6.960;2022-07-30T04:27:12;8.70;;;5.63;;
52386;SDS011;38317;53.084;6.960;2022-07-30T04:29:39;9.88;;;6.32;;
52386;SDS011;38317;53.084;6.960;2022-07-30T04:32:06;9.43;;;5.50;;
52386;SDS011;38317;53.084;6.960;2022-07-30T04:34:33;8.80;;;4.93;;
52386;SDS011;38317;53.084;6.960;2022-07-30T04:36:59;8.95;;;5.50;;
52386;SDS011;38317;53.084;6.960;2022-07-30T04:39:25;9.30;;;5.25;;
52386;SDS011;38317;53.084;6.960;2022-07-30T04:41:51;7.53;;;5.30;;
52386;SDS011;38317;53.084;6.960;2022-07-30T04:44:18;8.07;;;5.25;;
52386;SDS011;38317;53.084;6.960;2022-07-30T04:46:44;7.95;;;5.07;;
52386;SDS011;38317;53.084;6.960;2022-07-30T04:49:10;8.85;;;5.13;;
52386;SDS011;38317;53.084;6.960;2022-07-30T04:51:38;8.23;;;5.43;;
52386;SDS011;38317;53.084;6.960;2022-07-30T04:54:05;9.50;;;5.97;;
52386;SDS011;38317;53.084;6.960;2022-07-30T04:56:33;10.02;;;7.20;;
52386;SDS011;38317;53.084;6.960;2022-07-30T04:59:00;10.45;;;6.90;;
52386;SDS011;38317;53.084;6.960;2022-07-30T05:01:28;10.52;;;6.53;;
52386;SDS011;38317;53.084;6.960;2022-07-30T05:04:00;8.80;;;5.90;;
52386;SDS011;38317;53.084;6.960;2022-07-30T05:06:27;9.35;;;5.60;;
52386;SDS011;38317;53.084;6.960;2022-07-30T05:08:54;7.93;;;5.43;;
52386;SDS011;38317;53.084;6.960;2022-07-30T05:11:20;9.27;;;5.97;;
52386;SDS011;38317;53.084;6.960;2022-07-30T05:13:47;8.88;;;5.75;;
52386;SDS011;38317;53.084;6.960;2022-07-30T05:16:13;9.38;;;5.65;;
52386;SDS011;38317;53.084;6.960;2022-07-30T05:18:39;8.32;;;5.78;;
52386;SDS011;38317;53.084;6.960;2022-07-30T05:21:05;8.95;;;5.85;;
52386;SDS011;38317;53.084;6.960;2022-07-30T05:23:32;8.43;;;5.38;;
52386;SDS011;38317;53.084;6.960;2022-07-30T05:25:58;8.63;;;5.50;;
52386;SDS011;38317;53.084;6.960;2022-07-30T05:28:24;7.60;;;5.10;;
52386;SDS011;38317;53.084;6.960;2022-07-30T05:30:53;8.52;;;5.80;;
52386;SDS011;38317;53.084;6.960;2022-07-30T05:33:20;8.82;;;5.50;;
52386;SDS011;38317;53.084;6.960;2022-07-30T05:35:46;9.50;;;6.18;;
52386;SDS011;38317;53.084;6.960;2022-07-30T05:38:13;9.52;;;5.90;;
52386;SDS011;38317;53.084;6.960;2022-07-30T05:40:38;6.90;;;4.75;;
52386;SDS011;38317;53.084;6.960;2022-07-30T05:43:04;7.35;;;5.00;;
52386;SDS011;38317;53.084;6.960;2022-07-30T05:45:30;7.55;;;5.47;;
52386;SDS011;38317;53.084;6.960;2022-07-30T05:47:56;9.00;;;5.13;;
52386;SDS011;38317;53.084;6.960;2022-07-30T05:50:22;7.85;;;5.13;;
52386;SDS011;38317;53.084;6.960;2022-07-30T05:52:48;8.48;;;5.38;;
52386;SDS011;38317;53.084;6.960;2022-07-30T05:55:14;7.70;;;4.93;;
52386;SDS011;38317;53.084;6.960;2022-07-30T05:57:39;8.52;;;4.88;;
52386;SDS011;38317;53.084;6.960;2022-07-30T06:00:07;8.70;;;6.22;;
52386;SDS011;38317;53.084;6.960;2022-07-30T06:02:34;8.65;;;5.50;;
52386;SDS011;38317;53.084;6.960;2022-07-30T06:05:00;7.72;;;5.22;;
52386;SDS011;38317;53.084;6.960;2022-07-30T06:07:26;8.27;;;5.20;;
52386;SDS011;38317;53.084;6.960;2022-07-30T06:09:52;9.07;;;5.10;;
52386;SDS011;38317;53.084;6.960;2022-07-30T06:12:18;9.32;;;5.38;;
52386;SDS011;38317;53.084;6.960;2022-07-30T06:14:44;8.68;;;5.80;;
52386;SDS011;38317;53.084;6.960;2022-07-30T06:17:09;8.73;;;5.30;;
52386;SDS011;38317;53.084;6.960;2022-07-30T06:19:35;8.80;;;5.13;;
52386;SDS011;38317;53.084;6.960;2022-07-30T06:22:01;8.90;;;5.88;;
52386;SDS011;38317;53.084;6.960;2022-07-30T06:24:27;8.50;;;5.85;;
52386;SDS011;38317;53.084;6.960;2022-07-30T06:26:53;8.60;;;5.45;;
52386;SDS011;38317;53.084;6.960;2022-07-30T06:29:18;9.23;;;5.47;;
52386;SDS011;38317;53.084;6.960;2022-07-30T06:31:44;8.00;;;5.53;;
52386;SDS011;38317;53.084;6.960;2022-07-30T06:34:10;11.15;;;7.10;;
52386;SDS011;38317;53.084;6.960;2022-07-30T06:36:36;10.35;;;6.68;;
52386;SDS011;38317;53.084;6.960;2022-07-30T06:39:01;11.32;;;6.68;;
52386;SDS011;38317;53.084;6.960;2022-07-30T06:41:27;11.02;;;6.78;;
52386;SDS011;38317;53.084;6.960;2022-07-30T06:43:53;10.27;;;6.40;;
52386;SDS011;38317;53.084;6.960;2022-07-30T06:46:19;9.77;;;6.18;;
52386;SDS011;38317;53.084;6.960;2022-07-30T06:48:44;8.95;;;5.57;;
52386;SDS011;38317;53.084;6.960;2022-07-30T06:51:10;9.18;;;5.97;;
52386;SDS011;38317;53.084;6.960;2022-07-30T06:53:36;9.05;;;5.32;;
52386;SDS011;38317;53.084;6.960;2022-07-30T06:56:02;8.95;;;5.57;;
52386;SDS011;38317;53.084;6.960;2022-07-30T06:58:28;10.88;;;6.13;;
52386;SDS011;38317;53.084;6.960;2022-07-30T07:00:53;8.23;;;5.47;;
52386;SDS011;38317;53.084;6.960;2022-07-30T07:03:19;9.02;;;6.25;;
52386;SDS011;38317;53.084;6.960;2022-07-30T07:05:45;10.63;;;7.22;;
52386;SDS011;38317;53.084;6.960;2022-07-30T07:08:11;12.18;;;6.43;;
52386;SDS011;38317;53.084;6.960;2022-07-30T07:10:36;12.32;;;7.05;;
52386;SDS011;38317;53.084;6.960;2022-07-30T07:13:02;9.80;;;6.03;;
52386;SDS011;38317;53.084;6.960;2022-07-30T07:15:28;8.85;;;6.03;;
52386;SDS011;38317;53.084;6.960;2022-07-30T07:17:54;8.88;;;6.35;;
52386;SDS011;38317;53.084;6.960;2022-07-30T07:20:19;9.57;;;5.55;;
52386;SDS011;38317;53.084;6.960;2022-07-30T07:22:45;9.85;;;6.10;;
52386;SDS011;38317;53.084;6.960;2022-07-30T07:25:11;13.10;;;6.32;;
52386;SDS011;38317;53.084;6.960;2022-07-30T07:27:37;8.48;;;5.95;;
52386;SDS011;38317;53.084;6.960;2022-07-30T07:30:03;8.90;;;5.97;;
52386;SDS011;38317;53.084;6.960;2022-07-30T07:32:29;8.57;;;5.05;;
52386;SDS011;38317;53.084;6.960;2022-07-30T07:34:55;8.70;;;5.45;;
52386;SDS011;38317;53.084;6.960;2022-07-30T07:37:21;10.32;;;4.85;;
52386;SDS011;38317;53.084;6.960;2022-07-30T07:39:46;8.40;;;4.65;;
52386;SDS011;38317;53.084;6.960;2022-07-30T07:42:12;7.55;;;4.50;;
52386;SDS011;38317;53.084;6.960;2022-07-30T07:44:38;7.28;;;4.55;;
52386;SDS011;38317;53.084;6.960;2022-07-30T07:47:03;7.90;;;4.55;;
52386;SDS011;38317;53.084;6.960;2022-07-30T07:49:29;6.80;;;4.57;;
52386;SDS011;38317;53.084;6.960;2022-07-30T07:51:55;10.60;;;5.57;;
52386;SDS011;38317;53.084;6.960;2022-07-30T07:54:21;7.20;;;4.32;;
52386;SDS011;38317;53.084;6.960;2022-07-30T07:56:46;6.78;;;3.97;;
52386;SDS011;38317;53.084;6.960;2022-07-30T07:59:13;7.78;;;4.30;;
52386;SDS011;38317;53.084;6.960;2022-07-30T08:01:38;6.18;;;3.78;;
52386;SDS011;38317;53.084;6.960;2022-07-30T08:04:04;7.05;;;3.90;;
52386;SDS011;38317;53.084;6.960;2022-07-30T08:06:30;6.13;;;3.22;;
52386;SDS011;38317;53.084;6.960;2022-07-30T08:08:56;7.93;;;3.03;;
52386;SDS011;38317;53.084;6.960;2022-07-30T08:11:21;6.50;;;3.03;;
52386;SDS011;38317;53.084;6.960;2022-07-30T08:13:47;7.50;;;4.10;;
52386;SDS011;38317;53.084;6.960;2022-07-30T08:16:13;6.60;;;3.47;;
52386;SDS011;38317;53.084;6.960;2022-07-30T08:18:39;7.43;;;3.45;;
52386;SDS011;38317;53.084;6.960;2022-07-30T08:21:05;5.45;;;2.45;;
52386;SDS011;38317;53.084;6.960;2022-07-30T08:23:32;7.25;;;3.20;;
52386;SDS011;38317;53.084;6.960;2022-07-30T08:25:58;5.20;;;2.53;;
52386;SDS011;38317;53.084;6.960;2022-07-30T08:28:24;5.65;;;2.78;;
52386;SDS011;38317;53.084;6.960;2022-07-30T08:30:50;4.65;;;2.53;;
52386;SDS011;38317;53.084;6.960;2022-07-30T08:33:16;6.40;;;3.22;;
52386;SDS011;38317;53.084;6.960;2022-07-30T08:35:42;7.65;;;3.35;;
52386;SDS011;38317;53.084;6.960;2022-07-30T08:38:08;5.20;;;2.70;;
52386;SDS011;38317;53.084;6.960;2022-07-30T08:40:34;5.35;;;2.80;;
52386;SDS011;38317;53.084;6.960;2022-07-30T08:43:01;4.75;;;2.47;;
52386;SDS011;38317;53.084;6.960;2022-07-30T08:45:28;6.30;;;2.25;;
52386;SDS011;38317;53.084;6.960;2022-07-30T08:47:55;5.43;;;2.05;;
52386;SDS011;38317;53.084;6.960;2022-07-30T08:50:22;8.75;;;2.88;;
52386;SDS011;38317;53.084;6.960;2022-07-30T08:52:48;5.22;;;2.47;;
52386;SDS011;38317;53.084;6.960;2022-07-30T08:55:14;6.45;;;2.47;;
52386;SDS011;38317;53.084;6.960;2022-07-30T08:57:40;6.25;;;2.05;;
52386;SDS011;38317;53.084;6.960;2022-07-30T09:00:07;5.32;;;2.65;;
52386;SDS011;38317;53.084;6.960;2022-07-30T09:02:34;3.30;;;1.60;;
52386;SDS011;38317;53.084;6.960;2022-07-30T09:04:59;3.72;;;1.80;;
52386;SDS011;38317;53.084;6.960;2022-07-30T09:07:25;7.18;;;2.78;;
52386;SDS011;38317;53.084;6.960;2022-07-30T09:09:51;7.13;;;2.10;;
52386;SDS011;38317;53.084;6.960;2022-07-30T09:20:31;4.32;;;1.90;;
52386;SDS011;38317;53.084;6.960;2022-07-30T09:22:59;6.35;;;2.45;;
52386;SDS011;38317;53.084;6.960;2022-07-30T09:25:39;4.30;;;1.90;;
52386;SDS011;38317;53.084;6.960;2022-07-30T09:28:09;4.97;;;2.28;;
52386;SDS011;38317;53.084;6.960;2022-07-30T09:36:03;5.93;;;2.08;;
52386;SDS011;38317;53.084;6.960;2022-07-30T09:41:16;4.13;;;1.70;;
52386;SDS011;38317;53.084;6.960;2022-07-30T09:43:45;7.22;;;2.38;;
52386;SDS011;38317;53.084;6.960;2022-07-30T09:46:13;3.78;;;1.92;;
52386;SDS011;38317;53.084;6.960;2022-07-30T09:48:39;5.25;;;2.00;;
52386;SDS011;38317;53.084;6.960;2022-07-30T09:51:05;3.63;;;1.70;;
52386;SDS011;38317;53.084;6.960;2022-07-30T09:53:31;4.53;;;1.70;;
52386;SDS011;38317;53.084;6.960;2022-07-30T09:55:58;4.60;;;1.60;;
52386;SDS011;38317;53.084;6.960;2022-07-30T09:58:24;3.13;;;1.35;;
52386;SDS011;38317;53.084;6.960;2022-07-30T10:01:04;3.38;;;1.45;;
52386;SDS011;38317;53.084;6.960;2022-07-30T10:03:29;4.43;;;1.80;;
52386;SDS011;38317;53.084;6.960;2022-07-30T10:05:56;4.05;;;1.80;;
52386;SDS011;38317;53.084;6.960;2022-07-30T10:11:05;4.20;;;1.58;;
52386;SDS011;38317;53.084;6.960;2022-07-30T10:13:33;3.10;;;1.38;;
52386;SDS011;38317;53.084;6.960;2022-07-30T10:16:00;2.22;;;1.30;;
52386;SDS011;38317;53.084;6.960;2022-07-30T10:18:26;2.30;;;1.10;;
52386;SDS011;38317;53.084;6.960;2022-07-30T10:20:53;4.53;;;1.65;;
52386;SDS011;38317;53.084;6.960;2022-07-30T10:23:19;4.07;;;1.70;;
52386;SDS011;38317;53.084;6.960;2022-07-30T10:25:45;3.72;;;1.48;;
52386;SDS011;38317;53.084;6.960;2022-07-30T10:28:12;4.65;;;1.50;;
52386;SDS011;38317;53.084;6.960;2022-07-30T10:30:39;2.95;;;1.38;;
52386;SDS011;38317;53.084;6.960;2022-07-30T10:33:05;5.93;;;1.33;;
52386;SDS011;38317;53.084;6.960;2022-07-30T10:35:32;4.05;;;1.50;;
52386;SDS011;38317;53.084;6.960;2022-07-30T10:37:58;2.33;;;1.23;;
52386;SDS011;38317;53.084;6.960;2022-07-30T10:40:27;7.03;;;2.45;;
52386;SDS011;38317;53.084;6.960;2022-07-30T10:48:11;5.18;;;1.40;;
52386;SDS011;38317;53.084;6.960;2022-07-30T10:59:06;3.42;;;1.20;;
52386;SDS011;38317;53.084;6.960;2022-07-30T11:02:08;2.85;;;0.98;;
52386;SDS011;38317;53.084;6.960;2022-07-30T11:04:33;1.63;;;0.93;;
52386;SDS011;38317;53.084;6.960;2022-07-30T11:09:48;2.70;;;1.02;;
52386;SDS011;38317;53.084;6.960;2022-07-30T11:15:05;3.50;;;1.40;;
52386;SDS011;38317;53.084;6.960;2022-07-30T11:20:25;1.75;;;1.00;;
52386;SDS011;38317;53.084;6.960;2022-07-30T11:22:54;2.75;;;0.90;;
52386;SDS011;38317;53.084;6.960;2022-07-30T11:25:56;2.33;;;0.93;;
52386;SDS011;38317;53.084;6.960;2022-07-30T11:28:38;4.20;;;1.45;;
52386;SDS011;38317;53.084;6.960;2022-07-30T11:40:18;2.13;;;0.80;;
52386;SDS011;38317;53.084;6.960;2022-07-30T11:42:35;2.13;;;0.93;;
52386;SDS011;38317;53.084;6.960;2022-07-30T11:47:41;3.35;;;1.20;;
52386;SDS011;38317;53.084;6.960;2022-07-30T11:50:19;3.03;;;1.05;;
52386;SDS011;38317;53.084;6.960;2022-07-30T11:52:51;3.83;;;1.10;;
52386;SDS011;38317;53.084;6.960;2022-07-30T11:55:37;2.67;;;0.82;;
52386;SDS011;38317;53.084;6.960;2022-07-30T11:58:06;3.08;;;1.17;;
52386;SDS011;38317;53.084;6.960;2022-07-30T12:03:06;4.25;;;1.00;;
52386;SDS011;38317;53.084;6.960;2022-07-30T12:05:36;4.03;;;0.95;;
52386;SDS011;38317;53.084;6.960;2022-07-30T12:08:03;1.85;;;0.90;;
52386;SDS011;38317;53.084;6.960;2022-07-30T12:10:29;2.20;;;1.00;;
52386;SDS011;38317;53.084;6.960;2022-07-30T12:13:08;4.50;;;1.00;;
52386;SDS011;38317;53.084;6.960;2022-07-30T12:15:40;4.20;;;0.88;;
52386;SDS011;38317;53.084;6.960;2022-07-30T12:18:07;4.22;;;0.93;;
52386;SDS011;38317;53.084;6.960;2022-07-30T12:20:36;2.65;;;0.90;;
52386;SDS011;38317;53.084;6.960;2022-07-30T12:23:08;2.75;;;0.90;;
52386;SDS011;38317;53.084;6.960;2022-07-30T12:25:37;3.42;;;1.00;;
52386;SDS011;38317;53.084;6.960;2022-07-30T12:28:03;1.98;;;0.80;;
52386;SDS011;38317;53.084;6.960;2022-07-30T12:30:29;3.35;;;0.80;;
52386;SDS011;38317;53.084;6.960;2022-07-30T12:32:55;2.10;;;0.80;;
52386;SDS011;38317;53.084;6.960;2022-07-30T12:35:21;2.17;;;0.77;;
52386;SDS011;38317;53.084;6.960;2022-07-30T12:38:05;3.40;;;0.80;;
52386;SDS011;38317;53.084;6.960;2022-07-30T12:40:31;2.95;;;0.90;;
52386;SDS011;38317;53.084;6.960;2022-07-30T12:42:57;2.53;;;0.68;;
52386;SDS011;38317;53.084;6.960;2022-07-30T12:45:27;2.75;;;0.88;;
52386;SDS011;38317;53.084;6.960;2022-07-30T12:47:54;2.03;;;0.90;;
52386;SDS011;38317;53.084;6.960;2022-07-30T12:50:21;2.67;;;0.70;;
52386;SDS011;38317;53.084;6.960;2022-07-30T12:52:48;4.72;;;0.90;;
52386;SDS011;38317;53.084;6.960;2022-07-30T12:55:18;4.65;;;1.00;;
52386;SDS011;38317;53.084;6.960;2022-07-30T13:00:24;2.25;;;0.80;;
52386;SDS011;38317;53.084;6.960;2022-07-30T13:02:52;1.85;;;0.80;;
52386;SDS011;38317;53.084;6.960;2022-07-30T13:05:18;2.75;;;0.90;;
52386;SDS011;38317;53.084;6.960;2022-07-30T13:10:36;2.22;;;0.88;;
52386;SDS011;38317;53.084;6.960;2022-07-30T13:13:02;2.33;;;0.90;;
52386;SDS011;38317;53.084;6.960;2022-07-30T13:15:28;3.22;;;0.80;;
52386;SDS011;38317;53.084;6.960;2022-07-30T13:17:54;1.60;;;0.80;;
52386;SDS011;38317;53.084;6.960;2022-07-30T13:20:20;1.75;;;0.63;;
52386;SDS011;38317;53.084;6.960;2022-07-30T13:22:46;3.03;;;0.90;;
52386;SDS011;38317;53.084;6.960;2022-07-30T13:25:12;1.42;;;0.60;;
52386;SDS011;38317;53.084;6.960;2022-07-30T13:27:37;1.63;;;0.70;;
52386;SDS011;38317;53.084;6.960;2022-07-30T13:30:03;1.95;;;0.70;;
52386;SDS011;38317;53.084;6.960;2022-07-30T13:32:30;1.50;;;0.70;;
52386;SDS011;38317;53.084;6.960;2022-07-30T13:34:56;2.75;;;0.70;;
52386;SDS011;38317;53.084;6.960;2022-07-30T13:37:21;1.60;;;0.80;;
52386;SDS011;38317;53.084;6.960;2022-07-30T13:39:47;6.22;;;1.02;;
52386;SDS011;38317;53.084;6.960;2022-07-30T13:42:13;2.67;;;0.70;;
52386;SDS011;38317;53.084;6.960;2022-07-30T13:44:39;1.98;;;0.80;;
52386;SDS011;38317;53.084;6.960;2022-07-30T13:47:05;1.48;;;0.70;;
52386;SDS011;38317;53.084;6.960;2022-07-30T13:49:34;1.90;;;0.60;;
52386;SDS011;38317;53.084;6.960;2022-07-30T13:52:08;3.60;;;1.02;;
52386;SDS011;38317;53.084;6.960;2022-07-30T13:54:34;2.80;;;0.80;;
52386;SDS011;38317;53.084;6.960;2022-07-30T13:57:00;1.40;;;0.50;;
52386;SDS011;38317;53.084;6.960;2022-07-30T13:59:26;1.92;;;0.63;;
52386;SDS011;38317;53.084;6.960;2022-07-30T14:01:52;2.40;;;0.63;;
52386;SDS011;38317;53.084;6.960;2022-07-30T14:04:19;2.40;;;0.60;;
52386;SDS011;38317;53.084;6.960;2022-07-30T14:06:45;2.05;;;0.70;;
52386;SDS011;38317;53.084;6.960;2022-07-30T14:09:10;1.65;;;0.52;;
52386;SDS011;38317;53.084;6.960;2022-07-30T14:11:36;2.88;;;0.80;;
52386;SDS011;38317;53.084;6.960;2022-07-30T14:14:02;2.15;;;0.63;;
52386;SDS011;38317;53.084;6.960;2022-07-30T14:16:28;2.08;;;0.77;;
52386;SDS011;38317;53.084;6.960;2022-07-30T14:18:55;2.85;;;0.73;;
52386;SDS011;38317;53.084;6.960;2022-07-30T14:21:21;3.08;;;1.05;;
52386;SDS011;38317;53.084;6.960;2022-07-30T14:23:47;1.65;;;0.73;;
52386;SDS011;38317;53.084;6.960;2022-07-30T14:26:13;1.75;;;0.80;;
52386;SDS011;38317;53.084;6.960;2022-07-30T14:28:39;2.55;;;0.70;;
52386;SDS011;38317;53.084;6.960;2022-07-30T14:31:04;0.80;;;0.38;;
52386;SDS011;38317;53.084;6.960;2022-07-30T14:33:30;1.75;;;0.63;;
52386;SDS011;38317;53.084;6.960;2022-07-30T14:35:56;1.08;;;0.50;;
52386;SDS011;38317;53.084;6.960;2022-07-30T14:38:22;1.00;;;0.60;;
52386;SDS011;38317;53.084;6.960;2022-07-30T14:40:47;0.90;;;0.55;;
52386;SDS011;38317;53.084;6.960;2022-07-30T14:43:13;2.10;;;0.75;;
52386;SDS011;38317;53.084;6.960;2022-07-30T14:45:41;1.75;;;0.57;;
52386;SDS011;38317;53.084;6.960;2022-07-30T14:48:06;2.08;;;0.60;;
52386;SDS011;38317;53.084;6.960;2022-07-30T14:50:32;1.83;;;0.60;;
52386;SDS011;38317;53.084;6.960;2022-07-30T14:52:58;0.75;;;0.50;;
52386;SDS011;38317;53.084;6.960;2022-07-30T14:55:24;2.47;;;0.60;;
52386;SDS011;38317;53.084;6.960;2022-07-30T14:57:49;2.22;;;0.65;;
52386;SDS011;38317;53.084;6.960;2022-07-30T15:00:15;1.77;;;0.50;;
52386;SDS011;38317;53.084;6.960;2022-07-30T15:02:41;1.65;;;0.50;;
52386;SDS011;38317;53.084;6.960;2022-07-30T15:05:08;1.20;;;0.50;;
52386;SDS011;38317;53.084;6.960;2022-07-30T15:07:34;2.08;;;0.70;;
52386;SDS011;38317;53.084;6.960;2022-07-30T15:10:00;2.03;;;0.60;;
52386;SDS011;38317;53.084;6.960;2022-07-30T15:12:26;1.73;;;0.50;;
52386;SDS011;38317;53.084;6.960;2022-07-30T15:14:52;2.30;;;0.77;;
52386;SDS011;38317;53.084;6.960;2022-07-30T15:17:18;1.58;;;0.40;;
52386;SDS011;38317;53.084;6.960;2022-07-30T15:19:44;2.15;;;0.47;;
52386;SDS011;38317;53.084;6.960;2022-07-30T15:22:09;1.13;;;0.50;;
52386;SDS011;38317;53.084;6.960;2022-07-30T15:24:35;1.27;;;0.50;;
52386;SDS011;38317;53.084;6.960;2022-07-30T15:27:01;1.75;;;0.40;;
52386;SDS011;38317;53.084;6.960;2022-07-30T15:29:27;0.90;;;0.50;;
52386;SDS011;38317;53.084;6.960;2022-07-30T15:31:54;2.35;;;0.50;;
52386;SDS011;38317;53.084;6.960;2022-07-30T15:34:20;1.17;;;0.70;;
52386;SDS011;38317;53.084;6.960;2022-07-30T15:36:46;0.70;;;0.40;;
52386;SDS011;38317;53.084;6.960;2022-07-30T15:39:13;3.72;;;0.60;;
52386;SDS011;38317;53.084;6.960;2022-07-30T15:41:39;1.95;;;0.50;;
52386;SDS011;38317;53.084;6.960;2022-07-30T15:44:04;2.80;;;0.60;;
52386;SDS011;38317;53.084;6.960;2022-07-30T15:46:30;1.48;;;0.50;;
52386;SDS011;38317;53.084;6.960;2022-07-30T15:48:56;1.75;;;0.40;;
52386;SDS011;38317;53.084;6.960;2022-07-30T15:51:21;1.40;;;0.60;;
52386;SDS011;38317;53.084;6.960;2022-07-30T15:53:47;0.60;;;0.40;;